sensor_id;sensor_type;location;lat;lon;timestamp;P1;durP1;ratioP1;P2;durP2;ratioP2
15295;SDS011;7749;49.964;7.890;2023-07-08T00:01:08;10.73;;;8.13;;
15295;SDS011;7749;49.964;7.890;2023-07-08T00:03:40;10.10;;;7.72;;
15295;SDS011;7749;49.964;7.890;2023-07-08T00:06:13;13.25;;;8.18;;
15295;SDS011;7749;49.964;7.890;2023-07-08T00:08:42;12.52;;;8.68;;
15295;SDS011;7749;49.964;7.890;2023-07-08T00:11:11;11.13;;;8.65;;
15295;SDS011;7749;49.964;7.890;2023-07-08T00:13:39;10.57;;;7.80;;
15295;SDS011;7749;49.964;7.890;2023-07-08T00:16:11;11.98;;;8.30;;
15295;SDS011;7749;49.964;7.890;2023-07-08T00:18:44;11.05;;;8.32;;
15295;SDS011;7749;49.964;7.890;2023-07-08T00:21:13;12.38;;;9.45;;
15295;SDS011;7749;49.964;7.890;2023-07-08T00:23:43;11.18;;;8.85;;
15295;SDS011;7749;49.964;7.890;2023-07-08T00:26:31;9.35;;;7.63;;
15295;SDS011;7749;49.964;7.890;2023-07-08T00:28:58;9.05;;;8.10;;
15295;SDS011;7749;49.964;7.890;2023-07-08T00:31:26;10.02;;;8.00;;
15295;SDS011;7749;49.964;7.890;2023-07-08T00:33:55;11.25;;;8.90;;
15295;SDS011;7749;49.964;7.890;2023-07-08T00:36:27;10.27;;;8.02;;
15295;SDS011;7749;49.964;7.890;2023-07-08T00:38:55;10.48;;;7.82;;
15295;SDS011;7749;49.964;7.890;2023-07-08T00:43:57;11.65;;;8.68;;
15295;SDS011;7749;49.964;7.890;2023-07-08T00:51:55;11.07;;;8.27;;
15295;SDS011;7749;49.964;7.890;2023-07-08T00:54:22;11.20;;;9.02;;
15295;SDS011;7749;49.964;7.890;2023-07-08T00:56:57;10.05;;;8.38;;
15295;SDS011;7749;49.964;7.890;2023-07-08T01:02:03;9.57;;;8.00;;
15295;SDS011;7749;49.964;7.890;2023-07-08T01:04:37;11.40;;;8.90;;
15295;SDS011;7749;49.964;7.890;2023-07-08T01:07:06;10.82;;;8.52;;
15295;SDS011;7749;49.964;7.890;2023-07-08T01:09:36;10.50;;;8.57;;
15295;SDS011;7749;49.964;7.890;2023-07-08T01:12:11;9.80;;;8.02;;
15295;SDS011;7749;49.964;7.890;2023-07-08T01:14:43;11.20;;;8.18;;
15295;SDS011;7749;49.964;7.890;2023-07-08T01:17:12;9.45;;;8.30;;
15295;SDS011;7749;49.964;7.890;2023-07-08T01:19:41;9.70;;;7.35;;
15295;SDS011;7749;49.964;7.890;2023-07-08T01:22:10;11.00;;;8.00;;
15295;SDS011;7749;49.964;7.890;2023-07-08T01:24:39;9.80;;;8.13;;
15295;SDS011;7749;49.964;7.890;2023-07-08T01:27:10;9.98;;;8.50;;
15295;SDS011;7749;49.964;7.890;2023-07-08T01:29:40;10.10;;;8.75;;
15295;SDS011;7749;49.964;7.890;2023-07-08T01:32:10;9.52;;;7.93;;
15295;SDS011;7749;49.964;7.890;2023-07-08T01:34:45;10.90;;;8.63;;
15295;SDS011;7749;49.964;7.890;2023-07-08T01:37:35;10.52;;;8.05;;
15295;SDS011;7749;49.964;7.890;2023-07-08T01:42:52;11.02;;;8.15;;
15295;SDS011;7749;49.964;7.890;2023-07-08T01:45:21;11.20;;;8.23;;
15295;SDS011;7749;49.964;7.890;2023-07-08T01:47:55;10.98;;;8.20;;
15295;SDS011;7749;49.964;7.890;2023-07-08T01:50:26;9.73;;;8.02;;
15295;SDS011;7749;49.964;7.890;2023-07-08T01:52:56;11.57;;;8.50;;
15295;SDS011;7749;49.964;7.890;2023-07-08T01:55:28;11.35;;;8.75;;
15295;SDS011;7749;49.964;7.890;2023-07-08T01:57:55;9.32;;;8.32;;
15295;SDS011;7749;49.964;7.890;2023-07-08T02:00:23;9.23;;;8.20;;
15295;SDS011;7749;49.964;7.890;2023-07-08T02:02:51;10.70;;;8.48;;
15295;SDS011;7749;49.964;7.890;2023-07-08T02:05:19;9.38;;;8.32;;
15295;SDS011;7749;49.964;7.890;2023-07-08T02:07:47;11.88;;;7.72;;
15295;SDS011;7749;49.964;7.890;2023-07-08T02:10:15;12.57;;;8.73;;
15295;SDS011;7749;49.964;7.890;2023-07-08T02:12:42;10.85;;;8.00;;
15295;SDS011;7749;49.964;7.890;2023-07-08T02:15:10;12.02;;;8.70;;
15295;SDS011;7749;49.964;7.890;2023-07-08T02:17:38;10.98;;;8.27;;
15295;SDS011;7749;49.964;7.890;2023-07-08T02:20:06;10.48;;;7.82;;
15295;SDS011;7749;49.964;7.890;2023-07-08T02:22:35;9.70;;;8.00;;
15295;SDS011;7749;49.964;7.890;2023-07-08T02:25:03;11.70;;;8.27;;
15295;SDS011;7749;49.964;7.890;2023-07-08T02:27:32;11.98;;;8.25;;
15295;SDS011;7749;49.964;7.890;2023-07-08T02:29:59;9.95;;;7.78;;
15295;SDS011;7749;49.964;7.890;2023-07-08T02:32:28;10.57;;;8.05;;
15295;SDS011;7749;49.964;7.890;2023-07-08T02:34:55;10.38;;;7.65;;
15295;SDS011;7749;49.964;7.890;2023-07-08T02:37:24;9.45;;;8.02;;
15295;SDS011;7749;49.964;7.890;2023-07-08T02:39:51;9.38;;;7.47;;
15295;SDS011;7749;49.964;7.890;2023-07-08T02:42:19;8.77;;;7.75;;
15295;SDS011;7749;49.964;7.890;2023-07-08T02:44:46;10.30;;;7.93;;
15295;SDS011;7749;49.964;7.890;2023-07-08T02:47:14;9.73;;;8.25;;
15295;SDS011;7749;49.964;7.890;2023-07-08T02:49:42;12.48;;;8.38;;
15295;SDS011;7749;49.964;7.890;2023-07-08T02:52:09;10.00;;;8.15;;
15295;SDS011;7749;49.964;7.890;2023-07-08T02:54:37;10.57;;;8.07;;
15295;SDS011;7749;49.964;7.890;2023-07-08T02:57:04;10.15;;;8.60;;
15295;SDS011;7749;49.964;7.890;2023-07-08T02:59:32;9.48;;;7.97;;
15295;SDS011;7749;49.964;7.890;2023-07-08T03:01:59;10.63;;;8.15;;
15295;SDS011;7749;49.964;7.890;2023-07-08T03:04:27;9.38;;;8.32;;
15295;SDS011;7749;49.964;7.890;2023-07-08T03:06:54;10.55;;;7.90;;
15295;SDS011;7749;49.964;7.890;2023-07-08T03:09:22;13.05;;;7.38;;
15295;SDS011;7749;49.964;7.890;2023-07-08T03:11:50;10.80;;;8.20;;
15295;SDS011;7749;49.964;7.890;2023-07-08T03:14:17;9.65;;;7.80;;
15295;SDS011;7749;49.964;7.890;2023-07-08T03:16:45;9.05;;;7.32;;
15295;SDS011;7749;49.964;7.890;2023-07-08T03:19:13;10.05;;;7.53;;
15295;SDS011;7749;49.964;7.890;2023-07-08T03:21:42;8.50;;;7.25;;
15295;SDS011;7749;49.964;7.890;2023-07-08T03:24:10;10.13;;;7.85;;
15295;SDS011;7749;49.964;7.890;2023-07-08T03:26:39;8.70;;;7.18;;
15295;SDS011;7749;49.964;7.890;2023-07-08T03:29:08;9.73;;;7.82;;
15295;SDS011;7749;49.964;7.890;2023-07-08T03:31:41;9.60;;;7.75;;
15295;SDS011;7749;49.964;7.890;2023-07-08T03:34:09;9.10;;;7.88;;
15295;SDS011;7749;49.964;7.890;2023-07-08T03:36:45;10.60;;;8.20;;
15295;SDS011;7749;49.964;7.890;2023-07-08T03:39:18;11.30;;;7.93;;
15295;SDS011;7749;49.964;7.890;2023-07-08T03:41:50;8.93;;;7.80;;
15295;SDS011;7749;49.964;7.890;2023-07-08T03:44:19;9.48;;;7.15;;
15295;SDS011;7749;49.964;7.890;2023-07-08T03:46:47;8.63;;;7.55;;
15295;SDS011;7749;49.964;7.890;2023-07-08T03:49:19;11.02;;;7.78;;
15295;SDS011;7749;49.964;7.890;2023-07-08T03:51:53;9.43;;;7.80;;
15295;SDS011;7749;49.964;7.890;2023-07-08T03:54:22;14.20;;;7.95;;
15295;SDS011;7749;49.964;7.890;2023-07-08T03:56:51;10.25;;;7.85;;
15295;SDS011;7749;49.964;7.890;2023-07-08T03:59:18;10.27;;;7.97;;
15295;SDS011;7749;49.964;7.890;2023-07-08T04:01:46;10.27;;;7.18;;
15295;SDS011;7749;49.964;7.890;2023-07-08T04:04:14;8.98;;;8.07;;
15295;SDS011;7749;49.964;7.890;2023-07-08T04:06:43;9.48;;;7.75;;
15295;SDS011;7749;49.964;7.890;2023-07-08T04:09:12;7.35;;;6.63;;
15295;SDS011;7749;49.964;7.890;2023-07-08T04:11:42;8.85;;;7.22;;
15295;SDS011;7749;49.964;7.890;2023-07-08T04:14:09;8.70;;;7.40;;
15295;SDS011;7749;49.964;7.890;2023-07-08T04:19:18;9.70;;;7.28;;
15295;SDS011;7749;49.964;7.890;2023-07-08T04:21:46;10.57;;;7.95;;
15295;SDS011;7749;49.964;7.890;2023-07-08T04:24:14;10.23;;;8.15;;
15295;SDS011;7749;49.964;7.890;2023-07-08T04:26:44;11.30;;;8.68;;
15295;SDS011;7749;49.964;7.890;2023-07-08T04:29:14;10.85;;;7.68;;
15295;SDS011;7749;49.964;7.890;2023-07-08T04:31:43;12.60;;;8.02;;
15295;SDS011;7749;49.964;7.890;2023-07-08T04:34:11;9.82;;;7.60;;
15295;SDS011;7749;49.964;7.890;2023-07-08T04:36:39;11.18;;;7.75;;
15295;SDS011;7749;49.964;7.890;2023-07-08T04:39:07;12.68;;;8.10;;
15295;SDS011;7749;49.964;7.890;2023-07-08T04:41:38;9.80;;;7.70;;
15295;SDS011;7749;49.964;7.890;2023-07-08T04:44:08;12.23;;;8.45;;
15295;SDS011;7749;49.964;7.890;2023-07-08T04:47:13;10.05;;;8.07;;
15295;SDS011;7749;49.964;7.890;2023-07-08T04:49:35;9.15;;;7.50;;
15295;SDS011;7749;49.964;7.890;2023-07-08T04:52:03;9.23;;;7.97;;
15295;SDS011;7749;49.964;7.890;2023-07-08T04:54:31;14.00;;;8.38;;
15295;SDS011;7749;49.964;7.890;2023-07-08T04:56:58;9.60;;;7.32;;
15295;SDS011;7749;49.964;7.890;2023-07-08T04:59:26;14.18;;;8.20;;
15295;SDS011;7749;49.964;7.890;2023-07-08T05:01:53;11.27;;;7.82;;
15295;SDS011;7749;49.964;7.890;2023-07-08T05:04:21;15.25;;;7.63;;
15295;SDS011;7749;49.964;7.890;2023-07-08T05:06:49;12.63;;;7.72;;
15295;SDS011;7749;49.964;7.890;2023-07-08T05:09:17;11.43;;;8.15;;
15295;SDS011;7749;49.964;7.890;2023-07-08T05:11:45;10.68;;;8.05;;
15295;SDS011;7749;49.964;7.890;2023-07-08T05:14:12;9.60;;;7.35;;
15295;SDS011;7749;49.964;7.890;2023-07-08T05:16:40;9.25;;;7.60;;
15295;SDS011;7749;49.964;7.890;2023-07-08T05:19:08;12.82;;;7.90;;
15295;SDS011;7749;49.964;7.890;2023-07-08T05:21:37;10.57;;;8.25;;
15295;SDS011;7749;49.964;7.890;2023-07-08T05:24:05;10.57;;;7.82;;
15295;SDS011;7749;49.964;7.890;2023-07-08T05:26:33;9.25;;;7.60;;
15295;SDS011;7749;49.964;7.890;2023-07-08T05:29:01;11.27;;;7.63;;
15295;SDS011;7749;49.964;7.890;2023-07-08T05:31:28;9.40;;;7.50;;
15295;SDS011;7749;49.964;7.890;2023-07-08T05:33:59;10.73;;;7.35;;
15295;SDS011;7749;49.964;7.890;2023-07-08T05:36:27;7.57;;;6.50;;
15295;SDS011;7749;49.964;7.890;2023-07-08T05:38:55;8.85;;;7.05;;
15295;SDS011;7749;49.964;7.890;2023-07-08T05:41:23;9.20;;;7.45;;
15295;SDS011;7749;49.964;7.890;2023-07-08T05:43:50;10.20;;;7.65;;
15295;SDS011;7749;49.964;7.890;2023-07-08T05:46:18;11.25;;;7.60;;
15295;SDS011;7749;49.964;7.890;2023-07-08T05:48:45;10.85;;;8.13;;
15295;SDS011;7749;49.964;7.890;2023-07-08T05:51:13;9.32;;;7.80;;
15295;SDS011;7749;49.964;7.890;2023-07-08T05:53:41;11.80;;;8.25;;
15295;SDS011;7749;49.964;7.890;2023-07-08T05:56:08;9.60;;;7.90;;
15295;SDS011;7749;49.964;7.890;2023-07-08T05:58:36;9.50;;;7.93;;
15295;SDS011;7749;49.964;7.890;2023-07-08T06:01:05;11.23;;;8.13;;
15295;SDS011;7749;49.964;7.890;2023-07-08T06:03:33;9.32;;;7.93;;
15295;SDS011;7749;49.964;7.890;2023-07-08T06:06:05;9.55;;;7.65;;
15295;SDS011;7749;49.964;7.890;2023-07-08T06:08:35;10.13;;;7.90;;
15295;SDS011;7749;49.964;7.890;2023-07-08T06:11:20;9.57;;;7.72;;
15295;SDS011;7749;49.964;7.890;2023-07-08T06:13:51;8.48;;;7.30;;
15295;SDS011;7749;49.964;7.890;2023-07-08T06:16:19;8.75;;;7.65;;
15295;SDS011;7749;49.964;7.890;2023-07-08T06:19:05;8.88;;;7.45;;
15295;SDS011;7749;49.964;7.890;2023-07-08T06:21:39;9.60;;;7.22;;
15295;SDS011;7749;49.964;7.890;2023-07-08T06:24:07;8.40;;;7.20;;
15295;SDS011;7749;49.964;7.890;2023-07-08T06:26:35;8.95;;;7.35;;
15295;SDS011;7749;49.964;7.890;2023-07-08T06:29:06;8.43;;;7.05;;
15295;SDS011;7749;49.964;7.890;2023-07-08T06:31:34;8.73;;;7.43;;
15295;SDS011;7749;49.964;7.890;2023-07-08T06:34:07;9.10;;;7.45;;
15295;SDS011;7749;49.964;7.890;2023-07-08T06:36:37;8.48;;;7.45;;
15295;SDS011;7749;49.964;7.890;2023-07-08T06:42:26;8.68;;;7.20;;
15295;SDS011;7749;49.964;7.890;2023-07-08T06:44:57;10.57;;;7.60;;
15295;SDS011;7749;49.964;7.890;2023-07-08T06:47:34;8.70;;;7.35;;
15295;SDS011;7749;49.964;7.890;2023-07-08T06:50:34;9.57;;;6.97;;
15295;SDS011;7749;49.964;7.890;2023-07-08T06:53:09;9.20;;;7.05;;
15295;SDS011;7749;49.964;7.890;2023-07-08T06:56:06;10.20;;;7.43;;
15295;SDS011;7749;49.964;7.890;2023-07-08T06:58:37;8.80;;;7.90;;
15295;SDS011;7749;49.964;7.890;2023-07-08T07:01:14;9.45;;;7.78;;
15295;SDS011;7749;49.964;7.890;2023-07-08T07:03:43;9.93;;;7.18;;
15295;SDS011;7749;49.964;7.890;2023-07-08T07:06:23;9.35;;;7.80;;
15295;SDS011;7749;49.964;7.890;2023-07-08T07:08:53;10.90;;;8.38;;
15295;SDS011;7749;49.964;7.890;2023-07-08T07:11:20;9.68;;;7.53;;
15295;SDS011;7749;49.964;7.890;2023-07-08T07:13:48;8.43;;;7.55;;
15295;SDS011;7749;49.964;7.890;2023-07-08T07:16:15;11.52;;;8.13;;
15295;SDS011;7749;49.964;7.890;2023-07-08T07:18:43;8.43;;;7.57;;
15295;SDS011;7749;49.964;7.890;2023-07-08T07:21:11;8.75;;;7.53;;
15295;SDS011;7749;49.964;7.890;2023-07-08T07:23:39;10.55;;;7.70;;
15295;SDS011;7749;49.964;7.890;2023-07-08T07:26:06;10.75;;;7.55;;
15295;SDS011;7749;49.964;7.890;2023-07-08T07:28:34;8.70;;;7.80;;
15295;SDS011;7749;49.964;7.890;2023-07-08T07:31:02;9.30;;;7.60;;
15295;SDS011;7749;49.964;7.890;2023-07-08T07:33:32;9.15;;;7.15;;
15295;SDS011;7749;49.964;7.890;2023-07-08T07:36:00;8.68;;;7.53;;
15295;SDS011;7749;49.964;7.890;2023-07-08T07:38:29;8.93;;;7.32;;
15295;SDS011;7749;49.964;7.890;2023-07-08T07:40:59;8.55;;;7.10;;
15295;SDS011;7749;49.964;7.890;2023-07-08T07:43:31;8.02;;;7.22;;
15295;SDS011;7749;49.964;7.890;2023-07-08T07:46:00;8.40;;;6.72;;
15295;SDS011;7749;49.964;7.890;2023-07-08T07:48:28;8.00;;;7.05;;
15295;SDS011;7749;49.964;7.890;2023-07-08T07:50:56;13.07;;;8.07;;
15295;SDS011;7749;49.964;7.890;2023-07-08T07:53:23;7.53;;;6.78;;
15295;SDS011;7749;49.964;7.890;2023-07-08T07:56:25;8.85;;;6.90;;
15295;SDS011;7749;49.964;7.890;2023-07-08T07:58:45;8.55;;;6.55;;
15295;SDS011;7749;49.964;7.890;2023-07-08T08:01:12;8.20;;;6.80;;
15295;SDS011;7749;49.964;7.890;2023-07-08T08:03:40;7.32;;;6.63;;
15295;SDS011;7749;49.964;7.890;2023-07-08T08:06:17;8.18;;;7.38;;
15295;SDS011;7749;49.964;7.890;2023-07-08T08:08:45;7.55;;;6.78;;
15295;SDS011;7749;49.964;7.890;2023-07-08T08:11:13;8.23;;;7.38;;
15295;SDS011;7749;49.964;7.890;2023-07-08T08:13:42;9.57;;;7.10;;
15295;SDS011;7749;49.964;7.890;2023-07-08T08:16:14;7.70;;;6.68;;
15295;SDS011;7749;49.964;7.890;2023-07-08T08:18:41;7.35;;;6.57;;
15295;SDS011;7749;49.964;7.890;2023-07-08T08:21:09;7.53;;;6.68;;
15295;SDS011;7749;49.964;7.890;2023-07-08T08:23:36;6.32;;;5.72;;
15295;SDS011;7749;49.964;7.890;2023-07-08T08:26:04;8.30;;;6.45;;
15295;SDS011;7749;49.964;7.890;2023-07-08T08:28:31;7.55;;;6.72;;
15295;SDS011;7749;49.964;7.890;2023-07-08T08:30:59;10.02;;;7.22;;
15295;SDS011;7749;49.964;7.890;2023-07-08T08:33:26;7.45;;;6.75;;
15295;SDS011;7749;49.964;7.890;2023-07-08T08:35:56;8.23;;;7.43;;
15295;SDS011;7749;49.964;7.890;2023-07-08T08:38:24;7.22;;;6.13;;
15295;SDS011;7749;49.964;7.890;2023-07-08T08:40:52;7.72;;;6.43;;
15295;SDS011;7749;49.964;7.890;2023-07-08T08:43:21;8.77;;;7.03;;
15295;SDS011;7749;49.964;7.890;2023-07-08T08:46:02;7.68;;;6.25;;
15295;SDS011;7749;49.964;7.890;2023-07-08T08:49:15;7.03;;;5.47;;
15295;SDS011;7749;49.964;7.890;2023-07-08T08:51:44;6.35;;;5.72;;
15295;SDS011;7749;49.964;7.890;2023-07-08T08:54:12;6.93;;;6.25;;
15295;SDS011;7749;49.964;7.890;2023-07-08T08:56:55;7.57;;;6.43;;
15295;SDS011;7749;49.964;7.890;2023-07-08T08:59:55;7.43;;;6.70;;
15295;SDS011;7749;49.964;7.890;2023-07-08T09:02:37;7.78;;;6.47;;
15295;SDS011;7749;49.964;7.890;2023-07-08T09:05:18;8.15;;;6.38;;
15295;SDS011;7749;49.964;7.890;2023-07-08T09:13:33;7.72;;;6.38;;
15295;SDS011;7749;49.964;7.890;2023-07-08T09:18:38;8.20;;;7.38;;
15295;SDS011;7749;49.964;7.890;2023-07-08T09:21:28;7.32;;;6.30;;
15295;SDS011;7749;49.964;7.890;2023-07-08T09:24:03;9.80;;;6.75;;
15295;SDS011;7749;49.964;7.890;2023-07-08T09:26:47;8.98;;;6.53;;
15295;SDS011;7749;49.964;7.890;2023-07-08T09:29:17;8.05;;;6.00;;
15295;SDS011;7749;49.964;7.890;2023-07-08T09:31:45;6.97;;;6.28;;
15295;SDS011;7749;49.964;7.890;2023-07-08T09:34:16;8.40;;;6.65;;
15295;SDS011;7749;49.964;7.890;2023-07-08T09:36:53;7.00;;;6.05;;
15295;SDS011;7749;49.964;7.890;2023-07-08T09:39:20;7.15;;;6.03;;
15295;SDS011;7749;49.964;7.890;2023-07-08T09:41:48;7.45;;;6.72;;
15295;SDS011;7749;49.964;7.890;2023-07-08T09:44:18;7.57;;;6.35;;
15295;SDS011;7749;49.964;7.890;2023-07-08T09:46:54;7.75;;;5.82;;
15295;SDS011;7749;49.964;7.890;2023-07-08T09:49:28;9.20;;;5.93;;
15295;SDS011;7749;49.964;7.890;2023-07-08T09:52:02;7.55;;;6.50;;
15295;SDS011;7749;49.964;7.890;2023-07-08T09:54:31;8.27;;;6.05;;
15295;SDS011;7749;49.964;7.890;2023-07-08T09:57:04;6.68;;;6.05;;
15295;SDS011;7749;49.964;7.890;2023-07-08T09:59:39;7.75;;;6.95;;
15295;SDS011;7749;49.964;7.890;2023-07-08T10:02:26;7.18;;;5.90;;
15295;SDS011;7749;49.964;7.890;2023-07-08T10:05:00;8.15;;;6.97;;
15295;SDS011;7749;49.964;7.890;2023-07-08T10:07:38;8.15;;;5.93;;
15295;SDS011;7749;49.964;7.890;2023-07-08T10:10:07;7.05;;;5.78;;
15295;SDS011;7749;49.964;7.890;2023-07-08T10:13:04;8.13;;;5.65;;
15295;SDS011;7749;49.964;7.890;2023-07-08T10:15:46;6.60;;;5.65;;
15295;SDS011;7749;49.964;7.890;2023-07-08T10:18:27;7.22;;;5.75;;
15295;SDS011;7749;49.964;7.890;2023-07-08T10:26:26;7.38;;;5.70;;
15295;SDS011;7749;49.964;7.890;2023-07-08T10:37:22;8.43;;;5.95;;
15295;SDS011;7749;49.964;7.890;2023-07-08T10:56:59;6.70;;;5.95;;
15295;SDS011;7749;49.964;7.890;2023-07-08T11:02:34;6.57;;;5.97;;
15295;SDS011;7749;49.964;7.890;2023-07-08T11:05:31;8.02;;;6.07;;
15295;SDS011;7749;49.964;7.890;2023-07-08T11:10:44;11.13;;;6.03;;
15295;SDS011;7749;49.964;7.890;2023-07-08T11:13:15;6.45;;;5.80;;
15295;SDS011;7749;49.964;7.890;2023-07-08T11:15:54;6.95;;;5.80;;
15295;SDS011;7749;49.964;7.890;2023-07-08T11:26:46;6.18;;;5.50;;
15295;SDS011;7749;49.964;7.890;2023-07-08T11:29:35;8.85;;;5.90;;
15295;SDS011;7749;49.964;7.890;2023-07-08T11:32:08;7.65;;;6.65;;
15295;SDS011;7749;49.964;7.890;2023-07-08T11:34:43;8.88;;;7.05;;
15295;SDS011;7749;49.964;7.890;2023-07-08T11:37:13;7.60;;;6.90;;
15295;SDS011;7749;49.964;7.890;2023-07-08T11:39:43;7.40;;;6.80;;
15295;SDS011;7749;49.964;7.890;2023-07-08T11:42:20;7.43;;;6.57;;
15295;SDS011;7749;49.964;7.890;2023-07-08T11:44:57;8.25;;;6.80;;
15295;SDS011;7749;49.964;7.890;2023-07-08T11:49:57;7.30;;;6.60;;
15295;SDS011;7749;49.964;7.890;2023-07-08T11:52:25;7.22;;;6.53;;
15295;SDS011;7749;49.964;7.890;2023-07-08T11:54:58;7.65;;;6.80;;
15295;SDS011;7749;49.964;7.890;2023-07-08T11:57:34;7.25;;;6.55;;
15295;SDS011;7749;49.964;7.890;2023-07-08T12:00:16;7.10;;;6.50;;
15295;SDS011;7749;49.964;7.890;2023-07-08T12:02:50;6.70;;;6.10;;
15295;SDS011;7749;49.964;7.890;2023-07-08T12:05:33;7.07;;;6.38;;
15295;SDS011;7749;49.964;7.890;2023-07-08T12:08:03;7.07;;;6.40;;
15295;SDS011;7749;49.964;7.890;2023-07-08T12:13:14;7.20;;;6.60;;
15295;SDS011;7749;49.964;7.890;2023-07-08T12:15:44;7.13;;;6.50;;
15295;SDS011;7749;49.964;7.890;2023-07-08T12:18:13;7.38;;;6.68;;
15295;SDS011;7749;49.964;7.890;2023-07-08T12:20:44;7.68;;;6.70;;
15295;SDS011;7749;49.964;7.890;2023-07-08T12:23:24;7.22;;;6.50;;
15295;SDS011;7749;49.964;7.890;2023-07-08T12:25:52;7.38;;;6.72;;
15295;SDS011;7749;49.964;7.890;2023-07-08T12:28:22;7.70;;;6.93;;
15295;SDS011;7749;49.964;7.890;2023-07-08T12:30:51;7.47;;;6.15;;
15295;SDS011;7749;49.964;7.890;2023-07-08T12:33:29;9.63;;;6.85;;
15295;SDS011;7749;49.964;7.890;2023-07-08T12:36:00;7.30;;;6.68;;
15295;SDS011;7749;49.964;7.890;2023-07-08T12:41:05;6.78;;;6.28;;
15295;SDS011;7749;49.964;7.890;2023-07-08T12:43:37;7.43;;;6.72;;
15295;SDS011;7749;49.964;7.890;2023-07-08T12:46:04;7.20;;;6.60;;
15295;SDS011;7749;49.964;7.890;2023-07-08T12:48:34;8.30;;;7.55;;
15295;SDS011;7749;49.964;7.890;2023-07-08T12:51:02;9.05;;;7.38;;
15295;SDS011;7749;49.964;7.890;2023-07-08T12:53:31;7.93;;;7.13;;
15295;SDS011;7749;49.964;7.890;2023-07-08T12:56:01;8.45;;;7.03;;
15295;SDS011;7749;49.964;7.890;2023-07-08T12:58:30;8.73;;;7.00;;
15295;SDS011;7749;49.964;7.890;2023-07-08T13:01:02;8.50;;;6.88;;
15295;SDS011;7749;49.964;7.890;2023-07-08T13:03:34;6.90;;;6.25;;
15295;SDS011;7749;49.964;7.890;2023-07-08T13:06:08;10.93;;;7.60;;
15295;SDS011;7749;49.964;7.890;2023-07-08T13:08:38;8.52;;;6.90;;
15295;SDS011;7749;49.964;7.890;2023-07-08T13:11:07;7.55;;;6.95;;
15295;SDS011;7749;49.964;7.890;2023-07-08T13:13:35;8.30;;;7.30;;
15295;SDS011;7749;49.964;7.890;2023-07-08T13:16:11;8.45;;;7.45;;
15295;SDS011;7749;49.964;7.890;2023-07-08T13:18:39;7.97;;;7.13;;
15295;SDS011;7749;49.964;7.890;2023-07-08T13:21:15;7.85;;;7.18;;
15295;SDS011;7749;49.964;7.890;2023-07-08T13:23:43;7.85;;;7.18;;
15295;SDS011;7749;49.964;7.890;2023-07-08T13:26:16;7.45;;;6.78;;
15295;SDS011;7749;49.964;7.890;2023-07-08T13:28:45;7.80;;;7.20;;
15295;SDS011;7749;49.964;7.890;2023-07-08T13:33:52;7.90;;;7.30;;
15295;SDS011;7749;49.964;7.890;2023-07-08T13:36:23;8.70;;;7.60;;
15295;SDS011;7749;49.964;7.890;2023-07-08T13:39:00;8.23;;;7.45;;
15295;SDS011;7749;49.964;7.890;2023-07-08T13:41:31;8.55;;;7.68;;
15295;SDS011;7749;49.964;7.890;2023-07-08T13:44:03;7.90;;;7.30;;
15295;SDS011;7749;49.964;7.890;2023-07-08T13:46:34;8.95;;;6.93;;
15295;SDS011;7749;49.964;7.890;2023-07-08T13:51:50;7.22;;;6.60;;
15295;SDS011;7749;49.964;7.890;2023-07-08T13:54:24;7.63;;;6.57;;
15295;SDS011;7749;49.964;7.890;2023-07-08T13:57:00;8.10;;;7.32;;
15295;SDS011;7749;49.964;7.890;2023-07-08T13:59:28;7.90;;;7.07;;
15295;SDS011;7749;49.964;7.890;2023-07-08T14:01:57;7.78;;;7.22;;
15295;SDS011;7749;49.964;7.890;2023-07-08T14:04:32;8.57;;;7.72;;
15295;SDS011;7749;49.964;7.890;2023-07-08T14:07:01;10.07;;;8.07;;
15295;SDS011;7749;49.964;7.890;2023-07-08T14:09:28;9.82;;;8.82;;
15295;SDS011;7749;49.964;7.890;2023-07-08T14:11:56;12.80;;;8.77;;
15295;SDS011;7749;49.964;7.890;2023-07-08T14:14:24;10.90;;;9.95;;
15295;SDS011;7749;49.964;7.890;2023-07-08T14:16:52;9.13;;;8.43;;
15295;SDS011;7749;49.964;7.890;2023-07-08T14:19:22;9.27;;;8.20;;
15295;SDS011;7749;49.964;7.890;2023-07-08T14:21:53;9.23;;;8.35;;
15295;SDS011;7749;49.964;7.890;2023-07-08T14:24:23;9.35;;;8.52;;
15295;SDS011;7749;49.964;7.890;2023-07-08T14:26:52;9.50;;;8.63;;
15295;SDS011;7749;49.964;7.890;2023-07-08T14:29:20;10.32;;;8.48;;
15295;SDS011;7749;49.964;7.890;2023-07-08T14:31:48;8.73;;;7.93;;
15295;SDS011;7749;49.964;7.890;2023-07-08T14:34:22;8.30;;;7.47;;
15295;SDS011;7749;49.964;7.890;2023-07-08T14:36:52;8.57;;;6.72;;
15295;SDS011;7749;49.964;7.890;2023-07-08T14:39:21;8.75;;;6.90;;
15295;SDS011;7749;49.964;7.890;2023-07-08T14:41:49;7.65;;;6.80;;
15295;SDS011;7749;49.964;7.890;2023-07-08T14:44:21;7.85;;;7.15;;
15295;SDS011;7749;49.964;7.890;2023-07-08T14:46:57;10.00;;;6.80;;
15295;SDS011;7749;49.964;7.890;2023-07-08T14:49:26;10.40;;;7.18;;
15295;SDS011;7749;49.964;7.890;2023-07-08T14:51:54;10.27;;;6.10;;
15295;SDS011;7749;49.964;7.890;2023-07-08T14:54:21;6.53;;;5.85;;
15295;SDS011;7749;49.964;7.890;2023-07-08T14:56:49;7.20;;;6.50;;
15295;SDS011;7749;49.964;7.890;2023-07-08T14:59:21;9.00;;;6.10;;
15295;SDS011;7749;49.964;7.890;2023-07-08T15:01:50;7.50;;;5.93;;
15295;SDS011;7749;49.964;7.890;2023-07-08T15:04:20;8.05;;;5.97;;
15295;SDS011;7749;49.964;7.890;2023-07-08T15:06:47;10.75;;;5.93;;
15295;SDS011;7749;49.964;7.890;2023-07-08T15:09:17;7.53;;;5.35;;
15295;SDS011;7749;49.964;7.890;2023-07-08T15:11:45;6.68;;;5.00;;
15295;SDS011;7749;49.964;7.890;2023-07-08T15:14:21;7.60;;;5.40;;
15295;SDS011;7749;49.964;7.890;2023-07-08T15:16:51;8.68;;;5.35;;
15295;SDS011;7749;49.964;7.890;2023-07-08T15:19:19;5.82;;;5.22;;
15295;SDS011;7749;49.964;7.890;2023-07-08T15:21:47;9.20;;;5.25;;
15295;SDS011;7749;49.964;7.890;2023-07-08T15:24:15;7.93;;;5.22;;
15295;SDS011;7749;49.964;7.890;2023-07-08T15:26:44;6.25;;;5.28;;
15295;SDS011;7749;49.964;7.890;2023-07-08T15:29:16;6.53;;;5.28;;
15295;SDS011;7749;49.964;7.890;2023-07-08T15:31:49;7.72;;;6.20;;
15295;SDS011;7749;49.964;7.890;2023-07-08T15:34:18;7.80;;;5.50;;
15295;SDS011;7749;49.964;7.890;2023-07-08T15:36:47;8.80;;;6.07;;
15295;SDS011;7749;49.964;7.890;2023-07-08T15:39:15;6.70;;;5.82;;
15295;SDS011;7749;49.964;7.890;2023-07-08T15:41:43;5.68;;;5.07;;
15295;SDS011;7749;49.964;7.890;2023-07-08T15:44:11;6.32;;;5.45;;
15295;SDS011;7749;49.964;7.890;2023-07-08T15:46:41;5.95;;;5.25;;
15295;SDS011;7749;49.964;7.890;2023-07-08T15:51:45;7.18;;;5.22;;
15295;SDS011;7749;49.964;7.890;2023-07-08T15:54:19;6.82;;;4.93;;
15295;SDS011;7749;49.964;7.890;2023-07-08T15:56:47;9.20;;;4.60;;
15295;SDS011;7749;49.964;7.890;2023-07-08T15:59:19;5.80;;;4.50;;
15295;SDS011;7749;49.964;7.890;2023-07-08T16:01:51;5.82;;;4.80;;
15295;SDS011;7749;49.964;7.890;2023-07-08T16:04:26;4.93;;;4.32;;
15295;SDS011;7749;49.964;7.890;2023-07-08T16:06:58;5.40;;;3.97;;
15295;SDS011;7749;49.964;7.890;2023-07-08T16:09:26;6.32;;;4.05;;
15295;SDS011;7749;49.964;7.890;2023-07-08T16:11:54;5.22;;;4.25;;
15295;SDS011;7749;49.964;7.890;2023-07-08T16:14:21;7.85;;;4.07;;
15295;SDS011;7749;49.964;7.890;2023-07-08T16:16:53;5.97;;;4.35;;
15295;SDS011;7749;49.964;7.890;2023-07-08T16:19:20;7.80;;;4.20;;
15295;SDS011;7749;49.964;7.890;2023-07-08T16:21:48;7.72;;;4.00;;
15295;SDS011;7749;49.964;7.890;2023-07-08T16:24:16;5.10;;;3.78;;
15295;SDS011;7749;49.964;7.890;2023-07-08T16:26:43;5.57;;;3.78;;
15295;SDS011;7749;49.964;7.890;2023-07-08T16:29:13;6.38;;;3.75;;
15295;SDS011;7749;49.964;7.890;2023-07-08T16:31:42;5.25;;;3.78;;
15295;SDS011;7749;49.964;7.890;2023-07-08T16:34:10;3.63;;;3.25;;
15295;SDS011;7749;49.964;7.890;2023-07-08T16:36:39;5.90;;;3.20;;
15295;SDS011;7749;49.964;7.890;2023-07-08T16:39:07;4.15;;;3.00;;
15295;SDS011;7749;49.964;7.890;2023-07-08T16:41:35;6.75;;;3.28;;
15295;SDS011;7749;49.964;7.890;2023-07-08T16:46:42;4.25;;;3.20;;
15295;SDS011;7749;49.964;7.890;2023-07-08T16:49:11;5.88;;;3.22;;
15295;SDS011;7749;49.964;7.890;2023-07-08T16:51:38;5.35;;;3.60;;